Strona główna
METAR-TAF:

METAR-TAF

Lotnisko :

Port lotniczy Paryż-Roissy-Charles de Gaulle

Paryż-Charles de Gaulle, Francja

Szerokość geograficzna: 49-01N, Długość geograficzna: 002-32E, wysokość: 118 m

Aktualna obserwacja pogody

Raport powstał 19 minut temu, godzina 01:00 UTC
Wiatr 6 kt od wschód
Temperatura 28°C
Wilgotność 30%
Ciśnienie 1013 hPa
Widzialność 10 km lub więcej
Brak chmur poniżej 1500 m i brak chmur cumulonimbus

METAR: LFPG 240100Z 10006KT CAVOK 28/09 Q1013 NOSIG

czas: 03:19 (01:19 UTC)

Prognoza

Raport powstał 2 godziny i 19 minut temu, godzina 23:00 UTC
Prognoza ważna od 24 godzina 00 UTC do 25 godzina 06 UTC
Wiatr 5 kt od południowy wschód
Widzialność 10 km lub więcej
Brak chmur poniżej 1500 m i brak chmur cumulonimbus
Prawdopodobieństwo 30% :
Przejściowo
od 24 godzina 04 UTC do 24 godzina 12 UTC
Mało chmury na wysokości 8000 ft, Cumulusy wypiętrznone.

TAF: LFPG 232300Z 2400/2506 13005KT CAVOK TX38/2415Z TN23/2404Z PROB30 TEMPO 2404/2412 FEW080TCU

Obserwacja i prognoza pogody dla ponad 4000 lotnisk (raport METAR i TAF).

Dostępne stacje oznaczono żółtymi i czerwonymi punktami na mapie.

Najedź kursorem aby zobaczyć nazwę stacji.

Kliknij aby zobaczyć obserwacje i prognozy pogody.

Aby zmienić mapę: kliknij na zielony przycisk z czarnym krzyżykiem, aby powiększyć; na zielony przycisk z myślnikiem, aby pomniejszyć; na zielone strzałki, aby przejść do map sąsiednich.


METAR-TAF: